createdAt,value
2018-10-19T00:00:31.552Z,85.66
2018-10-19T00:01:31.541Z,85.66
2018-10-19T00:02:31.558Z,85.66
2018-10-19T00:03:31.514Z,85.45
2018-10-19T00:04:31.504Z,85.86
2018-10-19T00:05:31.500Z,85.75
2018-10-19T00:06:31.480Z,85.45
2018-10-19T00:07:31.500Z,85.86
2018-10-19T00:08:31.473Z,85.66
2018-10-19T00:09:31.450Z,85.55
2018-10-19T00:10:31.436Z,85.25
2018-10-19T00:11:31.425Z,85.14
2018-10-19T00:12:31.417Z,85.05
2018-10-19T00:13:31.423Z,85.35
2018-10-19T00:14:31.404Z,85.35
2018-10-19T00:15:31.381Z,85.14
2018-10-19T00:16:31.374Z,85.45
2018-10-19T00:17:31.359Z,85.55
2018-10-19T00:18:31.369Z,85.25
2018-10-19T00:19:31.336Z,85.55
2018-10-19T00:20:31.348Z,85.69
2018-10-19T00:21:31.315Z,85.69
2018-10-19T00:22:31.305Z,85.75
2018-10-19T00:23:31.323Z,85.96
2018-10-19T00:24:31.289Z,85.90
2018-10-19T00:25:31.273Z,85.55
2018-10-19T00:26:31.261Z,85.69
2018-10-19T00:27:31.248Z,85.75
2018-10-19T00:28:31.254Z,85.39
2018-10-19T00:29:31.243Z,85.55
2018-10-19T00:30:31.215Z,84.88
2018-10-19T00:31:31.203Z,85.19
2018-10-19T00:32:31.193Z,86.00
2018-10-19T00:33:31.183Z,85.86
2018-10-19T00:34:31.193Z,85.25
2018-10-19T00:35:31.160Z,85.55
2018-10-19T00:36:31.149Z,85.19
2018-10-19T00:37:31.148Z,84.94
2018-10-19T00:38:31.126Z,84.94
2018-10-19T00:39:31.143Z,85.25
2018-10-19T00:40:31.104Z,85.14
2018-10-19T00:41:31.101Z,84.94
2018-10-19T00:42:31.084Z,84.53
2018-10-19T00:43:31.074Z,84.06
2018-10-19T00:44:31.060Z,84.88
2018-10-19T00:45:31.071Z,84.67
2018-10-19T00:46:31.041Z,85.19
2018-10-19T00:47:31.027Z,85.28
2018-10-19T00:48:31.020Z,85.28
2018-10-19T00:49:31.007Z,85.25
2018-10-19T00:50:31.013Z,84.67
2018-10-19T00:51:30.983Z,84.06
2018-10-19T00:52:30.972Z,84.06
2018-10-19T00:53:30.964Z,84.47
2018-10-19T00:54:30.950Z,83.96
2018-10-19T00:55:30.957Z,83.65
2018-10-19T00:56:30.930Z,83.65
2018-10-19T00:57:30.923Z,83.76
2018-10-19T00:58:30.905Z,83.65
2018-10-19T00:59:30.894Z,83.76
2018-10-19T01:00:30.927Z,83.56
2018-10-19T01:01:30.872Z,83.76
2018-10-19T01:02:30.861Z,83.56
2018-10-19T01:03:30.856Z,83.45
2018-10-19T01:04:30.839Z,83.45
2018-10-19T01:05:30.828Z,83.45
2018-10-19T01:06:30.833Z,83.11
2018-10-19T01:07:30.805Z,83.21
2018-10-19T01:08:30.795Z,83.62
2018-10-19T01:09:30.786Z,83.76
2018-10-19T01:10:30.773Z,83.15
2018-10-19T01:11:30.790Z,83.42
2018-10-19T01:12:30.750Z,83.04
2018-10-19T01:13:30.741Z,83.35
2018-10-19T01:14:30.731Z,83.01
2018-10-19T01:15:30.717Z,82.64
2018-10-19T01:16:30.724Z,82.43
2018-10-19T01:17:30.713Z,82.19
2018-10-19T01:18:30.685Z,82.29
2018-10-19T01:19:30.681Z,81.72
2018-10-19T01:20:30.663Z,81.79
2018-10-19T01:21:30.650Z,82.23
2018-10-19T01:22:30.671Z,81.21
2018-10-19T01:23:30.637Z,82.13
2018-10-19T01:24:30.619Z,81.99
2018-10-19T01:25:30.609Z,81.11
2018-10-19T01:26:30.597Z,80.91
2018-10-19T01:27:30.595Z,80.80
2018-10-19T01:28:30.595Z,81.62
2018-10-19T01:29:30.562Z,81.82
2018-10-19T01:30:30.552Z,81.82
2018-10-19T01:31:30.543Z,81.72
2018-10-19T01:32:30.531Z,81.82
2018-10-19T01:33:30.554Z,81.11
2018-10-19T01:34:30.508Z,81.41
2018-10-19T01:35:30.496Z,81.62
2018-10-19T01:36:30.485Z,81.11
2018-10-19T01:37:30.475Z,81.41
2018-10-19T01:38:30.489Z,81.11
2018-10-19T01:39:30.452Z,81.21
2018-10-19T01:40:30.449Z,81.41
2018-10-19T01:41:30.432Z,81.11
2018-10-19T01:42:30.421Z,81.21
2018-10-19T01:43:30.407Z,81.01
2018-10-19T01:44:30.415Z,80.50
2018-10-19T01:45:30.385Z,81.01
2018-10-19T01:46:30.375Z,81.72
2018-10-19T01:47:30.365Z,80.60
2018-10-19T01:48:30.375Z,80.60
2018-10-19T01:49:30.362Z,80.50
2018-10-19T01:50:30.331Z,81.01
2018-10-19T01:51:30.323Z,81.62
2018-10-19T01:52:30.312Z,81.21
2018-10-19T01:53:30.298Z,80.91
2018-10-19T01:54:30.315Z,81.62
2018-10-19T01:55:30.279Z,81.72
2018-10-19T01:56:30.265Z,80.91
2018-10-19T01:57:30.256Z,81.21
2018-10-19T01:58:30.245Z,80.50
2018-10-19T01:59:30.234Z,80.50
2018-10-19T02:00:30.237Z,81.01
2018-10-19T02:01:30.210Z,80.60
2018-10-19T02:02:30.199Z,80.91
2018-10-19T02:03:30.192Z,80.80
2018-10-19T02:04:30.176Z,80.19
2018-10-19T02:05:30.184Z,80.40
2018-10-19T02:06:30.156Z,80.40
2018-10-19T02:07:30.143Z,80.70
2018-10-19T02:08:30.139Z,80.40
2018-10-19T02:09:30.129Z,80.60
2018-10-19T02:10:30.137Z,79.79
2018-10-19T02:11:30.101Z,80.60
2018-10-19T02:12:30.090Z,80.60
2018-10-19T02:13:30.081Z,80.40
2018-10-19T02:14:30.067Z,80.60
2018-10-19T02:15:30.055Z,80.50
2018-10-19T02:16:30.064Z,80.40
2018-10-19T02:17:30.039Z,79.79
2018-10-19T02:18:30.023Z,80.40
2018-10-19T02:19:30.011Z,79.93
2018-10-19T02:20:29.999Z,80.09
2018-10-19T02:21:30.006Z,80.09
2018-10-19T02:22:29.979Z,80.29
2018-10-19T02:23:29.969Z,80.50
2018-10-19T02:24:29.956Z,79.21
2018-10-19T02:25:29.944Z,79.48
2018-10-19T02:26:29.960Z,79.27
2018-10-19T02:27:29.921Z,79.17
2018-10-19T02:28:29.913Z,79.27
2018-10-19T02:29:29.899Z,79.17
2018-10-19T02:30:29.894Z,79.41
2018-10-19T02:31:29.880Z,79.58
2018-10-19T02:32:29.896Z,79.07
2018-10-19T02:33:29.855Z,78.87
2018-10-19T02:34:29.844Z,79.07
2018-10-19T02:35:29.842Z,78.77
2018-10-19T02:36:29.825Z,78.87
2018-10-19T02:37:29.833Z,78.77
2018-10-19T02:38:29.804Z,78.39
2018-10-19T02:39:29.794Z,78.66
2018-10-19T02:40:29.781Z,78.36
2018-10-19T02:41:29.768Z,78.87
2018-10-19T02:42:29.789Z,78.46
2018-10-19T02:43:29.747Z,78.36
2018-10-19T02:44:29.743Z,78.50
2018-10-19T02:45:29.724Z,78.70
2018-10-19T02:46:29.713Z,78.91
2018-10-19T02:47:29.701Z,78.77
2018-10-19T02:48:29.708Z,78.77
2018-10-19T02:49:29.684Z,78.36
2018-10-19T02:50:29.668Z,78.05
2018-10-19T02:51:29.658Z,78.16
2018-10-19T02:52:29.648Z,78.66
2018-10-19T02:53:29.653Z,78.46
2018-10-19T02:54:29.662Z,78.46
2018-10-19T02:55:29.617Z,78.56
2018-10-19T02:56:29.603Z,78.87
2018-10-19T02:57:29.595Z,78.56
2018-10-19T02:58:29.609Z,79.07
2018-10-19T02:59:29.581Z,78.91
2018-10-19T03:00:29.565Z,78.97
2018-10-19T03:01:29.547Z,78.80
2018-10-19T03:02:29.537Z,79.11
2018-10-19T03:03:29.528Z,79.48
2018-10-19T03:04:29.533Z,79.21
2018-10-19T03:05:29.529Z,79.32
2018-10-19T03:06:29.493Z,79.00
2018-10-19T03:07:29.483Z,79.00
2018-10-19T03:08:29.470Z,79.00
2018-10-19T03:09:29.480Z,79.11
2018-10-19T03:10:29.452Z,79.11
2018-10-19T03:11:29.472Z,79.27
2018-10-19T03:12:29.426Z,79.32
2018-10-19T03:13:29.417Z,79.82
2018-10-19T03:14:29.435Z,80.13
2018-10-19T03:15:29.396Z,80.33
2018-10-19T03:16:29.383Z,80.02
2018-10-19T03:17:29.373Z,80.64
2018-10-19T03:18:29.360Z,81.04
2018-10-19T03:19:29.350Z,81.90
2018-10-19T03:20:29.355Z,81.56
2018-10-19T03:21:29.327Z,81.66
2018-10-19T03:22:29.316Z,81.15
2018-10-19T03:23:29.308Z,81.80
2018-10-19T03:24:30.045Z,82.31
2018-10-19T03:25:29.314Z,82.71
2018-10-19T03:26:29.272Z,83.23
2018-10-19T03:27:29.269Z,83.12
2018-10-19T03:28:29.263Z,83.23
2018-10-19T03:29:29.242Z,83.02
2018-10-19T03:30:29.258Z,83.73
2018-10-19T03:31:29.221Z,83.53
2018-10-19T03:32:29.207Z,83.67
2018-10-19T03:33:29.199Z,84.18
2018-10-19T03:34:29.185Z,84.49
2018-10-19T03:35:29.179Z,84.94
2018-10-19T03:36:29.185Z,85.55
2018-10-19T03:37:29.157Z,85.65
2018-10-19T03:38:29.144Z,85.65
2018-10-19T03:39:29.130Z,85.75
2018-10-19T03:40:29.119Z,85.69
2018-10-19T03:41:29.211Z,86.16
2018-10-19T03:42:29.100Z,85.18
2018-10-19T03:43:29.088Z,85.45
2018-10-19T03:44:29.078Z,85.65
2018-10-19T03:45:29.068Z,85.45
2018-10-19T03:46:29.086Z,85.55
2018-10-19T03:47:29.043Z,85.65
2018-10-19T03:48:29.039Z,85.35
2018-10-19T03:49:29.024Z,85.14
2018-10-19T03:50:29.011Z,85.65
2018-10-19T03:51:29.048Z,85.38
2018-10-19T03:52:28.990Z,85.14
2018-10-19T03:53:28.984Z,85.45
2018-10-19T03:54:28.966Z,85.55
2018-10-19T03:55:28.957Z,84.77
2018-10-19T03:56:28.947Z,85.28
2018-10-19T03:57:28.953Z,85.59
2018-10-19T03:58:28.924Z,85.49
2018-10-19T03:59:28.913Z,86.30
2018-10-19T04:00:28.920Z,85.94
2018-10-19T04:01:28.891Z,85.94
2018-10-19T04:02:28.908Z,86.24
2018-10-19T04:03:28.943Z,86.14
2018-10-19T04:04:28.860Z,85.94
2018-10-19T04:05:28.856Z,85.73
2018-10-19T04:06:28.841Z,85.94
2018-10-19T04:07:28.858Z,86.14
2018-10-19T04:08:28.818Z,86.44
2018-10-19T04:09:28.806Z,86.59
2018-10-19T04:10:28.794Z,86.29
2018-10-19T04:11:28.786Z,86.59
2018-10-19T04:12:28.794Z,87.30
2018-10-19T04:13:28.777Z,87.00
2018-10-19T04:14:28.757Z,87.20
2018-10-19T04:15:28.739Z,87.10
2018-10-19T04:16:28.728Z,87.30
2018-10-19T04:17:28.768Z,86.69
2018-10-19T04:18:28.727Z,86.38
2018-10-19T04:19:28.697Z,86.69
2018-10-19T04:20:28.684Z,86.29
2018-10-19T04:21:28.675Z,86.59
2018-10-19T04:22:28.662Z,86.79
2018-10-19T04:23:28.681Z,86.18
2018-10-19T04:24:28.640Z,86.69
2018-10-19T04:25:28.629Z,86.59
2018-10-19T04:26:28.624Z,87.00
2018-10-19T04:27:28.631Z,86.69
2018-10-19T04:28:28.616Z,86.38
2018-10-19T04:29:28.606Z,86.29
2018-10-19T04:30:28.575Z,86.18
2018-10-19T04:31:28.566Z,86.49
2018-10-19T04:32:28.556Z,86.49
2018-10-19T04:33:28.580Z,86.14
2018-10-19T04:34:28.549Z,86.08
2018-10-19T04:35:28.526Z,86.08
2018-10-19T04:36:28.511Z,86.29
2018-10-19T04:37:28.507Z,85.88
2018-10-19T04:38:28.490Z,86.49
2018-10-19T04:39:28.496Z,86.49
2018-10-19T04:40:28.468Z,86.49
2018-10-19T04:41:28.479Z,86.53
2018-10-19T04:42:28.480Z,86.49
2018-10-19T04:43:28.442Z,86.53
2018-10-19T04:44:28.521Z,86.63
2018-10-19T04:45:28.415Z,86.94
2018-10-19T04:46:28.404Z,86.98
2018-10-19T04:47:28.413Z,87.29
2018-10-19T04:48:28.383Z,87.59
2018-10-19T04:49:28.376Z,86.98
2018-10-19T04:50:28.384Z,87.35
2018-10-19T04:51:28.349Z,87.04
2018-10-19T04:52:28.339Z,86.63
2018-10-19T04:53:28.371Z,86.63
2018-10-19T04:54:28.316Z,87.18
2018-10-19T04:55:28.332Z,87.08
2018-10-19T04:56:28.296Z,87.35
2018-10-19T04:57:28.286Z,86.98
2018-10-19T04:58:28.272Z,86.57
2018-10-19T04:59:28.262Z,86.12
2018-10-19T05:00:28.289Z,86.05
2018-10-19T05:01:28.244Z,86.57
2018-10-19T05:02:28.237Z,85.96
2018-10-19T05:03:28.220Z,85.96
2018-10-19T05:04:28.278Z,86.05
2018-10-19T05:05:28.372Z,85.96
2018-10-19T05:06:28.251Z,85.96
2018-10-19T05:07:28.175Z,85.96
2018-10-19T05:08:28.164Z,86.05
2018-10-19T05:09:28.153Z,85.44
2018-10-19T05:10:28.163Z,85.89
2018-10-19T05:11:28.153Z,85.79
2018-10-19T05:12:28.191Z,86.10
2018-10-19T05:13:28.111Z,86.10
2018-10-19T05:14:28.101Z,86.10
2018-10-19T05:15:28.092Z,85.14
2018-10-19T05:16:28.105Z,85.48
2018-10-19T05:17:28.070Z,85.58
2018-10-19T05:18:28.063Z,85.58
2018-10-19T05:19:28.046Z,85.89
2018-10-19T05:20:28.041Z,85.48
2018-10-19T05:21:28.046Z,85.17
2018-10-19T05:22:28.033Z,85.72
2018-10-19T05:23:28.006Z,85.52
2018-10-19T05:24:27.994Z,85.31
2018-10-19T05:25:27.981Z,86.14
2018-10-19T05:26:27.973Z,85.93
2018-10-19T05:27:27.982Z,85.63
2018-10-19T05:28:27.966Z,85.63
2018-10-19T05:29:27.939Z,85.63
2018-10-19T05:30:27.927Z,85.22
2018-10-19T05:31:27.915Z,85.77
2018-10-19T05:32:27.932Z,85.87
2018-10-19T05:33:27.911Z,86.04
2018-10-19T05:34:27.885Z,85.66
2018-10-19T05:35:27.885Z,85.15
2018-10-19T05:36:27.861Z,85.56
2018-10-19T05:37:27.869Z,85.66
2018-10-19T05:38:27.863Z,85.46
2018-10-19T05:39:27.833Z,85.25
2018-10-19T05:40:27.819Z,85.66
2018-10-19T05:41:27.815Z,85.46
2018-10-19T05:42:27.796Z,85.77
2018-10-19T05:43:27.841Z,85.25
2018-10-19T05:44:27.775Z,86.01
2018-10-19T05:45:27.763Z,86.01
2018-10-19T05:46:27.755Z,86.01
2018-10-19T05:47:27.763Z,86.22
2018-10-19T05:48:27.764Z,85.71
2018-10-19T05:49:27.719Z,85.80
2018-10-19T05:50:27.708Z,86.11
2018-10-19T05:51:27.698Z,85.91
2018-10-19T05:52:27.686Z,85.60
2018-10-19T05:53:27.694Z,85.60
2018-10-19T05:54:27.681Z,85.50
2018-10-19T05:55:27.657Z,86.22
2018-10-19T05:56:27.642Z,85.80
2018-10-19T05:57:27.633Z,86.01
2018-10-19T05:58:27.622Z,85.71
2018-10-19T05:59:27.628Z,85.60
2018-10-19T06:00:27.599Z,85.91
2018-10-19T06:01:27.589Z,86.22
2018-10-19T06:02:27.706Z,85.60
2018-10-19T06:03:27.566Z,85.60
2018-10-19T06:04:27.582Z,85.60
2018-10-19T06:05:27.546Z,85.80
2018-10-19T06:06:27.533Z,85.09
2018-10-19T06:07:27.523Z,84.88
2018-10-19T06:08:27.512Z,84.84
2018-10-19T06:09:27.501Z,84.84
2018-10-19T06:10:27.516Z,84.68
2018-10-19T06:11:27.479Z,84.88
2018-10-19T06:12:27.476Z,85.09
2018-10-19T06:13:27.502Z,85.60
2018-10-19T06:14:27.445Z,85.64
2018-10-19T06:15:27.455Z,85.64
2018-10-19T06:16:27.432Z,85.85
2018-10-19T06:17:27.416Z,86.05
2018-10-19T06:18:27.420Z,86.11
2018-10-19T06:19:27.406Z,85.60
2018-10-19T06:20:27.414Z,85.71
2018-10-19T06:21:27.369Z,85.39
2018-10-19T06:22:27.360Z,85.80
2018-10-19T06:23:27.348Z,85.91
2018-10-19T06:24:27.363Z,85.71
2018-10-19T06:25:27.326Z,85.77
2018-10-19T06:26:27.322Z,85.80
2018-10-19T06:27:27.304Z,85.25
2018-10-19T06:28:27.291Z,85.05
2018-10-19T06:29:27.310Z,84.99
2018-10-19T06:30:27.276Z,85.19
2018-10-19T06:31:27.281Z,86.11
2018-10-19T06:32:27.248Z,85.80
2018-10-19T06:33:27.244Z,85.91
2018-10-19T06:34:27.255Z,86.42
2018-10-19T06:35:27.215Z,86.22
2018-10-19T06:36:27.213Z,85.91
2018-10-19T06:37:27.196Z,86.22
2018-10-19T06:38:27.183Z,86.32
2018-10-19T06:39:27.184Z,85.60
2018-10-19T06:40:27.177Z,85.66
2018-10-19T06:41:27.149Z,85.77
2018-10-19T06:42:27.139Z,85.66
2018-10-19T06:43:27.129Z,85.39
2018-10-19T06:44:27.116Z,86.07
2018-10-19T06:45:27.127Z,85.46
2018-10-19T06:46:27.097Z,85.87
2018-10-19T06:47:27.140Z,86.07
2018-10-19T06:48:27.071Z,86.18
2018-10-19T06:49:27.067Z,86.07
2018-10-19T06:50:27.078Z,85.56
2018-10-19T06:51:27.053Z,85.77
2018-10-19T06:52:27.048Z,86.07
2018-10-19T06:53:27.023Z,86.48
2018-10-19T06:54:27.006Z,86.18
2018-10-19T06:55:26.995Z,85.25
2018-10-19T06:56:27.016Z,85.46
2018-10-19T06:57:26.974Z,85.56
2018-10-19T06:58:26.961Z,86.07
2018-10-19T06:59:27.043Z,85.66
2018-10-19T07:00:26.943Z,86.04
2018-10-19T07:01:26.957Z,85.46
2018-10-19T07:02:26.922Z,85.11
2018-10-19T07:03:26.908Z,84.70
2018-10-19T07:04:26.900Z,84.09
2018-10-19T07:05:26.921Z,84.29
2018-10-19T07:06:26.875Z,83.98
2018-10-19T07:07:26.898Z,84.09
2018-10-19T07:08:26.916Z,83.37
2018-10-19T07:09:26.877Z,83.88
2018-10-19T07:10:26.832Z,84.19
2018-10-19T07:11:26.823Z,83.88
2018-10-19T07:12:26.830Z,84.53
2018-10-19T07:13:26.797Z,84.84
2018-10-19T07:14:26.788Z,84.84
2018-10-19T07:15:26.786Z,85.11
2018-10-19T07:16:26.763Z,84.50
2018-10-19T07:17:26.784Z,84.29
2018-10-19T07:18:26.747Z,83.98
2018-10-19T07:19:26.749Z,84.09
2018-10-19T07:20:26.722Z,84.09
2018-10-19T07:21:26.728Z,83.88
2018-10-19T07:22:26.700Z,84.19
2018-10-19T07:23:26.687Z,84.29
2018-10-19T07:24:26.680Z,83.88
2018-10-19T07:25:26.680Z,84.12
2018-10-19T07:26:26.695Z,84.33
2018-10-19T07:27:26.645Z,84.44
2018-10-19T07:28:26.634Z,84.60
2018-10-19T07:29:26.661Z,84.29
2018-10-19T07:30:26.610Z,84.64
2018-10-19T07:31:26.599Z,84.95
2018-10-19T07:32:26.612Z,84.12
2018-10-19T07:33:26.577Z,84.09
2018-10-19T07:34:26.568Z,83.98
2018-10-19T07:35:26.556Z,84.29
2018-10-19T07:36:26.564Z,83.95
2018-10-19T07:37:26.578Z,83.95
2018-10-19T07:38:26.535Z,84.15
2018-10-19T07:39:26.513Z,83.74
2018-10-19T07:40:26.506Z,82.51
2018-10-19T07:41:26.489Z,82.10
2018-10-19T07:42:26.669Z,82.62
2018-10-19T07:43:26.466Z,81.90
2018-10-19T07:44:26.457Z,82.10
2018-10-19T07:45:26.456Z,82.51
2018-10-19T07:46:26.433Z,82.31
2018-10-19T07:47:26.495Z,82.31
2018-10-19T07:48:26.495Z,82.31
2018-10-19T07:49:26.465Z,82.62
2018-10-19T07:50:26.389Z,82.62
2018-10-19T07:51:26.380Z,82.62
2018-10-19T07:52:26.386Z,82.10
2018-10-19T07:53:26.357Z,82.21
2018-10-19T07:54:26.445Z,82.41
2018-10-19T07:55:26.364Z,82.82
2018-10-19T07:56:26.323Z,81.29
2018-10-19T07:57:26.318Z,81.59
2018-10-19T07:58:26.309Z,81.45
2018-10-19T07:59:26.292Z,80.63
2018-10-19T08:00:26.319Z,80.53
2018-10-19T08:01:26.269Z,80.53
2018-10-19T08:02:26.259Z,81.24
2018-10-19T08:03:26.253Z,80.94
2018-10-19T08:04:26.235Z,80.43
2018-10-19T08:05:26.268Z,80.43
2018-10-19T08:06:26.216Z,80.63
2018-10-19T08:07:26.203Z,80.33
2018-10-19T08:08:26.192Z,80.29
2018-10-19T08:09:26.184Z,80.74
2018-10-19T08:10:26.202Z,80.53
2018-10-19T08:11:26.171Z,81.35
2018-10-19T08:12:26.148Z,81.35
2018-10-19T08:13:26.142Z,81.45
2018-10-19T08:14:26.130Z,81.04
2018-10-19T08:15:26.150Z,81.04
2018-10-19T08:16:26.163Z,80.53
2018-10-19T08:17:26.096Z,80.02
2018-10-19T08:18:26.084Z,79.50
2018-10-19T08:19:26.072Z,79.78
2018-10-19T08:20:26.062Z,80.12
2018-10-19T08:21:26.108Z,79.98
2018-10-19T08:22:26.040Z,80.60
2018-10-19T08:23:26.027Z,79.47
2018-10-19T08:24:26.018Z,79.64
2018-10-19T08:25:26.044Z,79.74
2018-10-19T08:26:26.001Z,78.65
2018-10-19T08:27:26.093Z,79.47
2018-10-19T08:28:25.980Z,79.27
2018-10-19T08:29:25.961Z,79.57
2018-10-19T08:30:25.951Z,78.75
2018-10-19T08:31:25.938Z,79.41
2018-10-19T08:32:25.957Z,79.41
2018-10-19T08:33:25.918Z,79.41
2018-10-19T08:34:25.928Z,79.50
2018-10-19T08:35:25.895Z,79.41
2018-10-19T08:36:25.887Z,80.33
2018-10-19T08:37:25.976Z,80.83
2018-10-19T08:38:25.867Z,79.41
2018-10-19T08:39:25.851Z,80.05
2018-10-19T08:40:25.847Z,80.36
2018-10-19T08:41:25.842Z,80.67
2018-10-19T08:42:25.821Z,80.43
2018-10-19T08:43:25.825Z,80.63
2018-10-19T08:44:25.800Z,80.53
2018-10-19T08:45:25.786Z,79.50
2018-10-19T08:46:25.775Z,79.41
2018-10-19T08:47:25.782Z,79.16
2018-10-19T08:48:25.773Z,79.27
2018-10-19T08:49:25.745Z,79.47
2018-10-19T08:50:25.732Z,78.82
2018-10-19T08:51:25.722Z,78.92
2018-10-19T08:52:25.711Z,78.31
2018-10-19T08:53:25.751Z,78.31
2018-10-19T08:54:25.732Z,78.45
2018-10-19T08:55:25.719Z,78.86
2018-10-19T08:56:25.667Z,78.82
2018-10-19T08:57:25.667Z,78.65
2018-10-19T08:58:25.776Z,78.14
2018-10-19T08:59:25.658Z,79.13
2018-10-19T09:00:25.624Z,78.41
2018-10-19T09:01:25.616Z,78.00
2018-10-19T09:02:25.606Z,77.90
2018-10-19T09:03:25.647Z,78.00
2018-10-19T09:04:25.607Z,78.52
2018-10-19T09:05:25.570Z,78.61
2018-10-19T09:06:25.559Z,78.52
2018-10-19T09:07:25.549Z,78.20
2018-10-19T09:08:25.539Z,77.86
2018-10-19T09:09:25.555Z,77.86
2018-10-19T09:10:25.522Z,77.35
2018-10-19T09:11:25.558Z,77.35
2018-10-19T09:12:25.579Z,77.45
2018-10-19T09:13:25.488Z,77.86
2018-10-19T09:14:25.508Z,77.76
2018-10-19T09:15:25.478Z,77.70
2018-10-19T09:16:25.481Z,77.39
2018-10-19T09:17:26.363Z,77.80
2018-10-19T09:18:25.555Z,77.80
2018-10-19T09:19:25.442Z,78.20
2018-10-19T09:20:25.449Z,77.49
2018-10-19T09:21:25.398Z,77.25
2018-10-19T09:22:25.389Z,77.66
2018-10-19T09:23:25.377Z,77.66
2018-10-19T09:24:25.364Z,77.35
2018-10-19T09:25:25.353Z,77.25
2018-10-19T09:26:25.363Z,76.43
2018-10-19T09:27:25.335Z,77.15
2018-10-19T09:28:25.325Z,76.94
2018-10-19T09:29:25.331Z,77.04
2018-10-19T09:30:25.314Z,77.25
2018-10-19T09:31:25.386Z,76.33
2018-10-19T09:32:25.283Z,77.04
2018-10-19T09:33:25.266Z,77.15
2018-10-19T09:34:25.259Z,76.33
2018-10-19T09:35:25.312Z,76.90
2018-10-19T09:36:25.492Z,76.50
2018-10-19T09:37:25.223Z,75.92
2018-10-19T09:38:25.212Z,75.31
2018-10-19T09:39:25.211Z,75.92
2018-10-19T09:40:25.852Z,76.33
2018-10-19T09:41:25.359Z,76.94
2018-10-19T09:42:25.188Z,76.43
2018-10-19T09:43:25.166Z,76.03
2018-10-19T09:44:25.181Z,76.43
2018-10-19T09:45:25.139Z,76.33
2018-10-19T09:46:25.131Z,76.74
2018-10-19T09:47:25.185Z,76.33
2018-10-19T09:48:25.108Z,76.43
2018-10-19T09:49:25.107Z,75.92
2018-10-19T09:50:25.111Z,77.49
2018-10-19T09:51:25.072Z,76.98
2018-10-19T09:52:25.062Z,77.49
2018-10-19T09:53:25.068Z,77.70
2018-10-19T09:54:25.041Z,77.49
2018-10-19T09:55:25.037Z,77.19
2018-10-19T09:56:25.045Z,76.43
2018-10-19T09:57:25.007Z,77.04
2018-10-19T09:58:24.996Z,76.94
2018-10-19T09:59:24.986Z,77.15
2018-10-19T10:00:24.978Z,76.43
2018-10-19T10:01:24.987Z,76.64
2018-10-19T10:02:24.956Z,77.19
2018-10-19T10:03:25.042Z,77.29
2018-10-19T10:04:24.963Z,77.15
2018-10-19T10:05:24.921Z,77.04
2018-10-19T10:06:24.981Z,77.04
2018-10-19T10:07:24.900Z,76.64
2018-10-19T10:08:24.921Z,76.84
2018-10-19T10:09:24.880Z,75.68
2018-10-19T10:10:24.867Z,75.71
2018-10-19T10:11:24.859Z,75.62
2018-10-19T10:12:24.869Z,76.53
2018-10-19T10:13:24.835Z,75.99
2018-10-19T10:14:24.834Z,75.41
2018-10-19T10:15:24.947Z,75.10
2018-10-19T10:16:24.805Z,75.62
2018-10-19T10:17:24.810Z,76.43
2018-10-19T10:18:24.786Z,76.64
2018-10-19T10:19:24.770Z,76.53
2018-10-19T10:20:24.758Z,75.21
2018-10-19T10:21:24.757Z,75.89
2018-10-19T10:22:24.771Z,75.17
2018-10-19T10:23:24.742Z,74.97
2018-10-19T10:24:24.728Z,74.63
2018-10-19T10:25:24.812Z,75.34
2018-10-19T10:26:24.715Z,75.34
2018-10-19T10:27:24.686Z,75.24
2018-10-19T10:28:24.689Z,74.22
2018-10-19T10:29:24.667Z,74.29
2018-10-19T10:30:24.656Z,73.88
2018-10-19T10:31:24.639Z,75.31
2018-10-19T10:32:24.652Z,75.20
2018-10-19T10:33:24.647Z,73.81
2018-10-19T10:34:24.611Z,73.36
2018-10-19T10:35:24.604Z,73.16
2018-10-19T10:36:24.587Z,73.67
2018-10-19T10:37:24.575Z,72.99
2018-10-19T10:38:24.648Z,73.60
2018-10-19T10:39:24.555Z,73.77
2018-10-19T10:40:24.544Z,73.40
2018-10-19T10:41:24.538Z,73.57
2018-10-19T10:42:24.521Z,74.29
2018-10-19T10:43:24.509Z,73.33
2018-10-19T10:44:24.520Z,73.57
2018-10-19T10:45:24.490Z,72.82
2018-10-19T10:46:24.482Z,73.74
2018-10-19T10:47:24.471Z,73.33
2018-10-19T10:48:24.455Z,73.23
2018-10-19T10:49:24.487Z,73.03
2018-10-19T10:50:24.438Z,72.62
2018-10-19T10:51:24.429Z,72.72
2018-10-19T10:52:24.415Z,72.11
2018-10-19T10:53:24.406Z,72.11
2018-10-19T10:54:24.420Z,72.21
2018-10-19T10:55:24.380Z,72.52
2018-10-19T10:56:24.368Z,71.70
2018-10-19T10:57:24.358Z,73.19
2018-10-19T10:58:24.372Z,73.03
2018-10-19T10:59:24.347Z,73.81
2018-10-19T11:00:24.342Z,73.91
2018-10-19T11:01:24.317Z,74.11
2018-10-19T11:02:24.303Z,74.32
2018-10-19T11:03:24.293Z,73.88
2018-10-19T11:04:24.287Z,73.88
2018-10-19T11:05:24.301Z,72.75
2018-10-19T11:06:24.260Z,73.27
2018-10-19T11:07:24.457Z,72.75
2018-10-19T11:08:24.241Z,72.00
2018-10-19T11:09:24.234Z,72.92
2018-10-19T11:10:24.262Z,72.72
2018-10-19T11:11:24.208Z,72.41
2018-10-19T11:12:24.197Z,73.98
2018-10-19T11:13:24.184Z,73.13
2018-10-19T11:14:24.177Z,73.13
2018-10-19T11:15:24.163Z,72.92
2018-10-19T11:16:24.174Z,72.11
2018-10-19T11:17:24.150Z,72.11
2018-10-19T11:18:24.131Z,73.43
2018-10-19T11:19:24.122Z,72.69
2018-10-19T11:20:24.118Z,72.08
2018-10-19T11:21:24.125Z,72.11
2018-10-19T11:22:24.115Z,72.21
2018-10-19T11:23:24.082Z,72.21
2018-10-19T11:24:24.065Z,72.17
2018-10-19T11:25:24.055Z,71.97
2018-10-19T11:26:24.077Z,71.80
2018-10-19T11:27:24.096Z,71.97
2018-10-19T11:28:24.042Z,71.87
2018-10-19T11:29:24.018Z,72.79
2018-10-19T11:30:24.003Z,72.55
2018-10-19T11:31:23.989Z,72.04
2018-10-19T11:32:23.978Z,70.41
2018-10-19T11:33:23.999Z,69.70
2018-10-19T11:34:23.956Z,69.49
2018-10-19T11:35:23.947Z,69.59
2018-10-19T11:36:23.935Z,69.39
2018-10-19T11:37:23.984Z,69.70
2018-10-19T11:38:23.913Z,69.90
2018-10-19T11:39:23.920Z,68.68
2018-10-19T11:40:23.894Z,67.66
2018-10-19T11:41:23.883Z,67.76
2018-10-19T11:42:23.870Z,68.17
2018-10-19T11:43:23.874Z,67.96
2018-10-19T11:44:23.905Z,67.25
2018-10-19T11:45:23.852Z,66.74
2018-10-19T11:46:23.830Z,67.15
2018-10-19T11:47:23.819Z,65.83
2018-10-19T11:48:23.807Z,66.94
2018-10-19T11:49:23.827Z,66.13
2018-10-19T11:50:23.823Z,64.94
2018-10-19T11:51:23.782Z,65.55
2018-10-19T11:52:23.761Z,66.57
2018-10-19T11:53:23.750Z,66.57
2018-10-19T11:54:23.742Z,66.94
2018-10-19T11:55:23.763Z,66.23
2018-10-19T11:56:23.724Z,65.01
2018-10-19T11:57:23.711Z,65.52
2018-10-19T11:58:23.719Z,65.01
2018-10-19T11:59:23.686Z,64.20
2018-10-19T12:00:23.674Z,64.87
2018-10-19T12:01:23.681Z,64.67
2018-10-19T12:02:23.654Z,65.08
2018-10-19T12:03:23.676Z,64.78
2018-10-19T12:04:23.631Z,65.59
2018-10-19T12:05:23.620Z,66.00
2018-10-19T12:06:23.642Z,66.20
2018-10-19T12:07:23.603Z,65.19
2018-10-19T12:08:23.587Z,64.87
2018-10-19T12:09:23.576Z,66.71
2018-10-19T12:10:23.566Z,66.00
2018-10-19T12:11:23.583Z,64.57
2018-10-19T12:12:23.547Z,65.59
2018-10-19T12:13:23.541Z,65.77
2018-10-19T12:14:23.522Z,66.10
2018-10-19T12:15:23.513Z,66.58
2018-10-19T12:16:23.526Z,66.07
2018-10-19T12:17:23.509Z,66.27
2018-10-19T12:18:23.495Z,66.24
2018-10-19T12:19:23.468Z,66.14
2018-10-19T12:20:23.460Z,65.91
2018-10-19T12:21:23.463Z,65.22
2018-10-19T12:22:23.509Z,65.43
2018-10-19T12:23:23.432Z,64.61
2018-10-19T12:24:23.413Z,65.22
2018-10-19T12:25:23.404Z,65.70
2018-10-19T12:26:23.393Z,64.38
2018-10-19T12:27:23.381Z,64.28
2018-10-19T12:28:23.397Z,65.02
2018-10-19T12:29:23.359Z,64.38
2018-10-19T12:30:23.356Z,64.99
2018-10-19T12:31:23.336Z,64.81
2018-10-19T12:32:23.354Z,64.92
2018-10-19T12:33:23.322Z,65.19
2018-10-19T12:34:23.309Z,66.00
2018-10-19T12:35:23.304Z,64.69
2018-10-19T12:36:23.282Z,64.38
2018-10-19T12:37:23.294Z,64.81
2018-10-19T12:38:23.258Z,64.72
2018-10-19T12:39:23.250Z,64.72
2018-10-19T12:40:23.241Z,64.92
2018-10-19T12:41:23.233Z,64.61
2018-10-19T12:42:23.242Z,64.81
2018-10-19T12:43:23.204Z,65.60
2018-10-19T12:44:23.194Z,65.53
2018-10-19T12:45:23.181Z,65.63
2018-10-19T12:46:23.170Z,65.33
2018-10-19T12:47:23.187Z,65.22
2018-10-19T12:48:23.169Z,64.99
2018-10-19T12:49:23.137Z,64.38
2018-10-19T12:50:23.177Z,64.92
2018-10-19T12:51:23.114Z,64.20
2018-10-19T12:52:23.104Z,64.00